createdAt,value
2018-06-19T00:01:20.693Z,101498.21
2018-06-19T00:03:49.741Z,101495.02
2018-06-19T00:06:19.004Z,101502.36
2018-06-19T00:08:47.703Z,101504.41
2018-06-19T00:11:16.903Z,101502.09
2018-06-19T00:13:46.324Z,101500.92
2018-06-19T00:16:16.148Z,101501.71
2018-06-19T00:18:49.942Z,101495.98
2018-06-19T00:21:26.508Z,101499.56
2018-06-19T00:23:55.165Z,101500.12
2018-06-19T00:26:24.430Z,101492.00
2018-06-19T00:28:54.282Z,101492.13
2018-06-19T00:31:23.365Z,101490.41
2018-06-19T00:33:52.009Z,101491.85
2018-06-19T00:36:23.537Z,101490.95
2018-06-19T00:38:53.771Z,101493.48
2018-06-19T00:41:23.033Z,101491.74
2018-06-19T00:43:52.558Z,101491.74
2018-06-19T00:46:23.878Z,101491.83
2018-06-19T00:48:52.490Z,101487.08
2018-06-19T00:51:21.396Z,101486.64
2018-06-19T00:53:50.293Z,101487.25
2018-06-19T00:56:30.785Z,101490.84
2018-06-19T00:58:59.681Z,101488.00
2018-06-19T01:01:29.259Z,101479.04
2018-06-19T01:03:58.851Z,101483.02
2018-06-19T01:06:28.675Z,101477.98
2018-06-19T01:08:57.303Z,101475.02
2018-06-19T01:11:25.922Z,101484.08
2018-06-19T01:13:54.870Z,101474.58
2018-06-19T01:16:23.864Z,101477.23
2018-06-19T01:18:52.481Z,101479.77
2018-06-19T01:21:21.779Z,101485.50
2018-06-19T01:23:50.985Z,101495.44
2018-06-19T01:26:20.930Z,101501.24
2018-06-19T01:28:50.904Z,101489.03
2018-06-19T01:31:19.900Z,101492.79
2018-06-19T01:33:48.507Z,101487.84
2018-06-19T01:36:17.529Z,101487.53
2018-06-19T01:38:46.413Z,101494.45
2018-06-19T01:41:14.980Z,101494.25
2018-06-19T01:43:43.897Z,101483.88
2018-06-19T01:46:12.854Z,101480.86
2018-06-19T01:48:41.477Z,101476.03
2018-06-19T01:51:10.673Z,101483.58
2018-06-19T01:53:39.666Z,101477.45
2018-06-19T01:56:08.309Z,101475.95
2018-06-19T01:58:37.244Z,101478.13
2018-06-19T02:01:07.857Z,101477.52
2018-06-19T02:03:36.548Z,101474.04
2018-06-19T02:06:07.192Z,101472.53
2018-06-19T02:08:36.197Z,101469.67
2018-06-19T02:11:05.118Z,101470.26
2018-06-19T02:13:35.521Z,101471.39
2018-06-19T02:16:04.861Z,101472.53
2018-06-19T02:18:35.447Z,101464.94
2018-06-19T02:21:04.432Z,101465.73
2018-06-19T02:23:33.457Z,101467.39
2018-06-19T02:26:03.682Z,101469.48
2018-06-19T02:28:34.678Z,101472.44
2018-06-19T02:31:04.940Z,101480.02
2018-06-19T02:33:35.154Z,101474.41
2018-06-19T02:36:06.187Z,101482.37
2018-06-19T02:38:34.869Z,101477.84
2018-06-19T02:41:05.522Z,101479.50
2018-06-19T02:43:36.118Z,101476.22
2018-06-19T02:46:05.082Z,101467.95
2018-06-19T02:48:34.112Z,101470.22
2018-06-19T02:51:02.761Z,101470.84
2018-06-19T02:53:31.662Z,101473.09
2018-06-19T02:56:00.533Z,101475.95
2018-06-19T02:58:29.224Z,101474.08
2018-06-19T03:00:58.158Z,101476.72
2018-06-19T03:03:28.615Z,101480.02
2018-06-19T03:05:58.029Z,101481.09
2018-06-19T03:08:27.160Z,101480.38
2018-06-19T03:10:58.197Z,101488.08
2018-06-19T03:13:29.042Z,101494.94
2018-06-19T03:15:58.483Z,101497.42
2018-06-19T03:18:27.822Z,101505.86
2018-06-19T03:20:56.794Z,101507.57
2018-06-19T03:23:25.988Z,101505.01
2018-06-19T03:25:54.605Z,101507.94
2018-06-19T03:28:23.298Z,101515.53
2018-06-19T03:30:52.036Z,101518.35
2018-06-19T03:33:21.611Z,101532.25
2018-06-19T03:35:50.638Z,101530.89
2018-06-19T03:38:19.547Z,101531.14
2018-06-19T03:40:48.161Z,101526.50
2018-06-19T03:43:17.155Z,101535.77
2018-06-19T03:45:45.865Z,101529.89
2018-06-19T03:48:14.801Z,101544.58
2018-06-19T03:50:43.487Z,101538.47
2018-06-19T03:53:12.386Z,101547.19
2018-06-19T03:55:41.268Z,101545.09
2018-06-19T03:58:09.899Z,101538.44
2018-06-19T04:00:38.592Z,101539.32
2018-06-19T04:03:07.898Z,101545.90
2018-06-19T04:05:36.525Z,101548.75
2018-06-19T04:08:05.223Z,101552.08
2018-06-19T04:10:34.043Z,101551.57
2018-06-19T04:13:03.096Z,101552.45
2018-06-19T04:15:32.107Z,101547.86
2018-06-19T04:18:00.723Z,101553.76
2018-06-19T04:20:29.789Z,101552.50
2018-06-19T04:22:59.236Z,101556.19
2018-06-19T04:25:27.894Z,101560.05
2018-06-19T04:27:56.503Z,101560.67
2018-06-19T04:30:25.661Z,101565.50
2018-06-19T04:32:54.582Z,101571.51
2018-06-19T04:35:25.110Z,101565.05
2018-06-19T04:37:54.180Z,101565.05
2018-06-19T04:40:23.411Z,101560.20
2018-06-19T04:42:52.082Z,101562.70
2018-06-19T04:45:20.708Z,101566.86
2018-06-19T04:47:51.845Z,101568.03
2018-06-19T04:50:21.691Z,101566.99
2018-06-19T04:52:51.294Z,101571.85
2018-06-19T04:55:19.946Z,101566.99
2018-06-19T04:57:48.876Z,101567.82
2018-06-19T05:00:17.867Z,101571.05
2018-06-19T05:02:46.785Z,101565.22
2018-06-19T05:05:15.445Z,101568.24
2018-06-19T05:07:44.168Z,101567.20
2018-06-19T05:10:12.871Z,101571.61
2018-06-19T05:12:41.869Z,101580.48
2018-06-19T05:15:12.367Z,101573.97
2018-06-19T05:17:41.789Z,101576.68
2018-06-19T05:20:11.070Z,101580.88
2018-06-19T05:22:39.694Z,101582.22
2018-06-19T05:25:08.747Z,101587.59
2018-06-19T05:27:37.954Z,101584.30
2018-06-19T05:30:07.036Z,101579.75
2018-06-19T05:32:36.003Z,101587.11
2018-06-19T05:35:04.789Z,101580.23
2018-06-19T05:37:33.715Z,101583.95
2018-06-19T05:40:02.408Z,101588.39
2018-06-19T05:42:31.412Z,101594.05
2018-06-19T05:45:00.309Z,101584.20
2018-06-19T05:47:29.013Z,101596.63
2018-06-19T05:49:57.886Z,101600.86
2018-06-19T05:52:27.098Z,101599.51
2018-06-19T05:54:56.279Z,101601.80
2018-06-19T05:57:25.189Z,101605.39
2018-06-19T05:59:53.803Z,101603.86
2018-06-19T06:02:22.801Z,101615.44
2018-06-19T06:04:51.712Z,101613.87
2018-06-19T06:07:21.307Z,101611.36
2018-06-19T06:09:50.368Z,101611.83
2018-06-19T06:12:19.304Z,101612.97
2018-06-19T06:14:47.922Z,101616.89
2018-06-19T06:17:16.595Z,101615.00
2018-06-19T06:19:47.051Z,101616.45
2018-06-19T06:22:16.875Z,101621.77
2018-06-19T06:24:46.204Z,101621.42
2018-06-19T06:27:15.633Z,101624.86
2018-06-19T06:29:44.254Z,101619.44
2018-06-19T06:32:12.869Z,101626.84
2018-06-19T06:34:42.072Z,101615.42
2018-06-19T06:37:10.859Z,101618.83
2018-06-19T06:39:39.472Z,101620.93
2018-06-19T06:42:08.169Z,101615.79
2018-06-19T06:44:36.864Z,101612.67
2018-06-19T06:47:05.783Z,101616.62
2018-06-19T06:49:34.552Z,101605.12
2018-06-19T06:52:03.592Z,101612.69
2018-06-19T06:54:32.278Z,101613.83
2018-06-19T06:57:02.140Z,101611.47
2018-06-19T06:59:32.455Z,101613.91
2018-06-19T07:02:01.087Z,101614.64
2018-06-19T07:04:31.607Z,101612.91
2018-06-19T07:07:00.555Z,101622.17
2018-06-19T07:09:29.165Z,101613.06
2018-06-19T07:11:57.845Z,101620.33
2018-06-19T07:14:27.228Z,101612.41
2018-06-19T07:16:55.815Z,101607.39
2018-06-19T07:19:24.529Z,101608.58
2018-06-19T07:21:53.666Z,101605.45
2018-06-19T07:24:22.249Z,101611.91
2018-06-19T07:26:51.191Z,101609.06
2018-06-19T07:29:19.871Z,101620.52
2018-06-19T07:31:48.856Z,101623.89
2018-06-19T07:34:17.444Z,101622.36
2018-06-19T07:36:46.125Z,101629.98
2018-06-19T07:39:15.274Z,101623.26
2018-06-19T07:41:44.319Z,101629.14
2018-06-19T07:44:13.464Z,101634.16
2018-06-19T07:46:42.094Z,101626.42
2018-06-19T07:49:11.051Z,101621.13
2018-06-19T07:51:39.924Z,101625.89
2018-06-19T07:54:08.613Z,101623.66
2018-06-19T07:56:37.209Z,101626.11
2018-06-19T07:59:06.137Z,101630.30
2018-06-19T08:01:35.102Z,101621.66
2018-06-19T08:04:03.994Z,101623.63
2018-06-19T08:06:32.980Z,101626.23
2018-06-19T08:09:01.794Z,101622.48
2018-06-19T08:11:30.973Z,101627.00
2018-06-19T08:13:59.670Z,101630.19
2018-06-19T08:16:28.361Z,101636.73
2018-06-19T08:18:56.967Z,101632.17
2018-06-19T08:21:25.934Z,101629.02
2018-06-19T08:23:54.559Z,101642.28
2018-06-19T08:26:23.159Z,101638.55
2018-06-19T08:28:51.824Z,101631.73
2018-06-19T08:31:20.774Z,101630.94
2018-06-19T08:33:50.007Z,101636.73
2018-06-19T08:36:18.933Z,101638.13
2018-06-19T08:38:47.590Z,101640.21
2018-06-19T08:41:16.200Z,101629.16
2018-06-19T08:43:44.786Z,101643.06
2018-06-19T08:46:13.559Z,101643.00
2018-06-19T08:48:42.349Z,101637.94
2018-06-19T08:51:11.494Z,101645.01
2018-06-19T08:53:40.652Z,101642.75
2018-06-19T08:56:09.714Z,101647.47
2018-06-19T08:58:38.333Z,101643.57
2018-06-19T09:01:07.278Z,101636.37
2018-06-19T09:03:35.941Z,101632.92
2018-06-19T09:06:04.649Z,101621.16
2018-06-19T09:08:33.548Z,101623.05
2018-06-19T09:11:02.438Z,101621.28
2018-06-19T09:13:31.133Z,101624.19
2018-06-19T09:16:00.316Z,101623.19
2018-06-19T09:18:29.021Z,101625.78
2018-06-19T09:20:57.653Z,101624.27
2018-06-19T09:23:26.540Z,101627.98
2018-06-19T09:25:55.221Z,101621.78
2018-06-19T09:28:24.206Z,101625.02
2018-06-19T09:30:52.867Z,101629.77
2018-06-19T09:33:21.528Z,101628.95
2018-06-19T09:35:50.453Z,101633.93
2018-06-19T09:38:19.126Z,101635.30
2018-06-19T09:40:47.898Z,101635.83
2018-06-19T09:43:17.429Z,101628.47
2018-06-19T09:45:46.192Z,101624.27
2018-06-19T09:48:15.690Z,101631.56
2018-06-19T09:50:46.644Z,101633.22
2018-06-19T09:53:15.408Z,101626.47
2018-06-19T09:55:44.087Z,101626.81
2018-06-19T09:58:12.765Z,101631.81
2018-06-19T10:00:42.322Z,101636.95
2018-06-19T10:03:11.012Z,101632.73
2018-06-19T10:05:40.813Z,101631.38
2018-06-19T10:08:11.560Z,101633.22
2018-06-19T10:10:40.555Z,101640.88
2018-06-19T10:13:09.174Z,101637.13
2018-06-19T10:15:37.831Z,101637.68
2018-06-19T10:18:06.512Z,101648.05
2018-06-19T10:20:35.173Z,101639.92
2018-06-19T10:23:04.225Z,101641.38
2018-06-19T10:25:32.850Z,101644.69
2018-06-19T10:28:02.079Z,101649.31
2018-06-19T10:30:31.015Z,101647.35
2018-06-19T10:32:59.962Z,101645.99
2018-06-19T10:35:28.925Z,101652.03
2018-06-19T10:37:57.591Z,101647.06
2018-06-19T10:40:26.591Z,101646.80
2018-06-19T10:42:55.508Z,101642.54
2018-06-19T10:45:24.195Z,101647.81
2018-06-19T10:47:52.851Z,101642.53
2018-06-19T10:50:21.528Z,101651.01
2018-06-19T10:52:50.885Z,101655.53
2018-06-19T10:55:19.786Z,101654.47
2018-06-19T10:57:48.662Z,101653.66
2018-06-19T11:00:17.375Z,101648.77
2018-06-19T11:02:46.440Z,101652.05
2018-06-19T11:05:15.357Z,101660.00
2018-06-19T11:07:43.976Z,101658.09
2018-06-19T11:10:12.602Z,101653.91
2018-06-19T11:12:41.220Z,101656.30
2018-06-19T11:15:09.832Z,101650.75
2018-06-19T11:17:38.778Z,101650.14
2018-06-19T11:20:07.422Z,101663.40
2018-06-19T11:22:36.401Z,101664.13
2018-06-19T11:25:05.363Z,101659.56
2018-06-19T11:27:34.252Z,101664.96
2018-06-19T11:30:02.868Z,101666.72
2018-06-19T11:32:32.478Z,101658.42
2018-06-19T11:35:01.399Z,101661.66
2018-06-19T11:37:31.661Z,101664.57
2018-06-19T11:40:00.555Z,101669.86
2018-06-19T11:42:29.164Z,101670.13
2018-06-19T11:44:57.835Z,101659.71
2018-06-19T11:47:27.127Z,101662.14
2018-06-19T11:49:55.763Z,101663.77
2018-06-19T11:52:24.663Z,101657.78
2018-06-19T11:54:54.438Z,101658.23
2018-06-19T11:57:23.132Z,101659.25
2018-06-19T11:59:51.846Z,101656.52
2018-06-19T12:02:20.889Z,101650.34
2018-06-19T12:04:49.544Z,101647.14
2018-06-19T12:07:18.592Z,101651.78
2018-06-19T12:09:47.270Z,101652.31
2018-06-19T12:12:15.965Z,101645.97
2018-06-19T12:14:45.850Z,101647.36
2018-06-19T12:17:15.903Z,101644.63
2018-06-19T12:19:45.114Z,101638.75
2018-06-19T12:22:13.764Z,101639.72
2018-06-19T12:24:42.496Z,101647.23
2018-06-19T12:27:11.149Z,101650.17
2018-06-19T12:29:40.321Z,101653.81
2018-06-19T12:32:09.274Z,101652.70
2018-06-19T12:34:38.317Z,101644.45
2018-06-19T12:37:07.299Z,101652.17
2018-06-19T12:39:35.950Z,101653.20
2018-06-19T12:42:04.717Z,101650.78
2018-06-19T12:44:33.429Z,101652.86
2018-06-19T12:47:02.515Z,101647.67
2018-06-19T12:49:42.233Z,101653.57
2018-06-19T12:52:22.042Z,101648.88
2018-06-19T12:55:31.357Z,101648.20
2018-06-19T12:58:00.405Z,101651.74
2018-06-19T13:00:29.065Z,101652.88
2018-06-19T13:03:08.799Z,101648.14
2018-06-19T13:06:40.899Z,101645.95
2018-06-19T13:09:09.878Z,101649.66
2018-06-19T13:11:38.693Z,101641.06
2018-06-19T13:14:18.661Z,101641.99
2018-06-19T13:16:58.318Z,101649.42
2018-06-19T13:19:38.241Z,101652.39
2018-06-19T13:22:06.927Z,101646.66
2018-06-19T13:24:35.666Z,101649.77
2018-06-19T13:27:04.616Z,101650.42
2018-06-19T13:29:49.179Z,101644.74
2018-06-19T13:32:17.895Z,101650.16
2018-06-19T13:34:46.617Z,101650.23
2018-06-19T13:37:15.502Z,101648.34
2018-06-19T13:39:44.764Z,101655.94
2018-06-19T13:43:28.237Z,101655.69
2018-06-19T13:45:56.825Z,101662.05
2018-06-19T13:48:25.535Z,101661.26
2018-06-19T13:50:54.197Z,101653.30
2018-06-19T13:53:22.907Z,101656.97
2018-06-19T13:56:11.564Z,101652.05
2018-06-19T13:58:40.555Z,101665.47
2018-06-19T14:01:09.765Z,101663.97
2018-06-19T14:03:38.677Z,101661.58
2018-06-19T14:06:07.451Z,101664.00
2018-06-19T14:08:46.513Z,101656.10
2018-06-19T14:11:26.257Z,101660.44
2018-06-19T14:13:55.007Z,101663.31
2018-06-19T14:16:23.811Z,101673.55
2018-06-19T14:18:52.523Z,101678.77
2018-06-19T14:21:21.194Z,101673.09
2018-06-19T14:23:50.049Z,101674.88
2018-06-19T14:26:18.725Z,101677.02
2018-06-19T14:28:47.637Z,101676.25
2018-06-19T14:31:16.213Z,101682.61
2018-06-19T14:33:45.313Z,101689.19
2018-06-19T14:36:13.913Z,101683.67
2018-06-19T14:38:42.596Z,101687.58
2018-06-19T14:41:11.204Z,101692.08
2018-06-19T14:43:40.267Z,101693.11
2018-06-19T14:46:09.203Z,101692.17
2018-06-19T14:48:37.915Z,101689.76
2018-06-19T14:51:06.569Z,101690.16
2018-06-19T14:53:35.193Z,101695.16
2018-06-19T14:56:03.881Z,101690.02
2018-06-19T14:58:32.546Z,101689.59
2018-06-19T15:01:01.605Z,101688.88
2018-06-19T15:03:30.230Z,101692.57
2018-06-19T15:05:59.179Z,101692.91
2018-06-19T15:08:28.099Z,101690.25
2018-06-19T15:10:57.299Z,101696.89
2018-06-19T15:13:26.499Z,101698.50
2018-06-19T15:15:55.232Z,101697.72
2018-06-19T15:18:23.960Z,101693.86
2018-06-19T15:20:52.569Z,101698.84
2018-06-19T15:23:21.255Z,101700.27
2018-06-19T15:25:50.298Z,101702.22
2018-06-19T15:28:18.951Z,101706.72
2018-06-19T15:30:47.946Z,101707.23
2018-06-19T15:33:16.987Z,101703.51
2018-06-19T15:35:45.670Z,101709.13
2018-06-19T15:38:14.340Z,101704.98
2018-06-19T15:40:44.597Z,101702.25
2018-06-19T15:43:17.943Z,101708.72
2018-06-19T15:45:49.230Z,101707.66
2018-06-19T15:48:20.351Z,101715.01
2018-06-19T15:50:51.009Z,101714.83
2018-06-19T15:56:02.891Z,101714.16
2018-06-19T15:58:31.971Z,101707.70
2018-06-19T16:01:00.738Z,101706.56
2018-06-19T16:03:33.565Z,101710.31
2018-06-19T16:06:07.353Z,101711.00
2018-06-19T16:08:36.036Z,101708.27
2018-06-19T16:11:05.643Z,101711.05
2018-06-19T16:13:35.026Z,101711.63
2018-06-19T16:16:03.745Z,101721.03
2018-06-19T16:18:32.799Z,101711.52
2018-06-19T16:21:01.842Z,101704.73
2018-06-19T16:23:30.587Z,101710.45
2018-06-19T16:25:59.615Z,101709.19
2018-06-19T16:28:29.010Z,101707.87
2018-06-19T16:30:57.877Z,101709.72
2018-06-19T16:33:26.696Z,101704.40
2018-06-19T16:35:55.427Z,101705.75
2018-06-19T16:38:24.136Z,101705.18
2018-06-19T16:40:53.140Z,101712.82
2018-06-19T16:43:22.181Z,101710.87
2018-06-19T16:45:51.378Z,101699.83
2018-06-19T16:48:20.373Z,101703.17
2018-06-19T16:50:49.380Z,101704.34
2018-06-19T16:53:18.314Z,101708.03
2018-06-19T16:55:47.359Z,101702.03
2018-06-19T16:58:16.077Z,101701.34
2018-06-19T17:00:44.949Z,101699.17
2018-06-19T17:03:13.562Z,101700.09
2018-06-19T17:05:42.226Z,101697.53
2018-06-19T17:08:11.267Z,101703.18
2018-06-19T17:10:40.313Z,101702.27
2018-06-19T17:13:09.271Z,101696.30
2018-06-19T17:15:37.949Z,101698.11
2018-06-19T17:18:06.841Z,101700.27
2018-06-19T17:20:35.547Z,101697.36
2018-06-19T17:23:04.260Z,101699.05
2018-06-19T17:25:33.294Z,101699.17
2018-06-19T17:28:02.877Z,101695.64
2018-06-19T17:30:31.561Z,101708.03
2018-06-19T17:33:00.283Z,101702.52
2018-06-19T17:35:29.199Z,101703.30
2018-06-19T17:37:57.880Z,101701.67
2018-06-19T17:40:26.859Z,101705.92
2018-06-19T17:42:55.541Z,101708.71
2018-06-19T17:45:24.634Z,101704.59
2018-06-19T17:47:53.959Z,101711.37
2018-06-19T17:50:27.639Z,101711.22
2018-06-19T17:52:56.273Z,101717.34
2018-06-19T17:55:25.074Z,101711.06
2018-06-19T17:57:53.802Z,101710.63
2018-06-19T18:00:22.613Z,101707.66
2018-06-19T18:02:51.602Z,101707.96
2018-06-19T18:05:23.494Z,101709.09
2018-06-19T18:07:52.754Z,101703.33
2018-06-19T18:10:22.493Z,101703.06
2018-06-19T18:12:55.934Z,101705.80
2018-06-19T18:15:24.997Z,101705.80
2018-06-19T18:17:56.710Z,101701.34
2018-06-19T18:20:29.627Z,101707.05
2018-06-19T18:23:01.009Z,101710.88
2018-06-19T18:25:31.323Z,101704.73
2018-06-19T18:28:00.196Z,101704.40
2018-06-19T18:30:31.636Z,101707.52
2018-06-19T18:33:00.474Z,101703.10
2018-06-19T18:35:29.331Z,101706.36
2018-06-19T18:37:59.109Z,101710.61
2018-06-19T18:40:34.104Z,101716.36
2018-06-19T18:43:04.151Z,101717.65
2018-06-19T18:45:33.282Z,101709.02
2018-06-19T18:48:02.182Z,101713.29
2018-06-19T18:50:33.455Z,101711.09
2018-06-19T18:53:02.176Z,101716.31
2018-06-19T18:55:33.160Z,101717.18
2018-06-19T18:58:02.183Z,101718.27
2018-06-19T19:00:32.685Z,101716.55
2018-06-19T19:03:01.651Z,101720.86
2018-06-19T19:05:33.622Z,101725.90
2018-06-19T19:08:04.454Z,101727.19
2018-06-19T19:10:40.146Z,101729.67
2018-06-19T19:13:11.109Z,101728.75
2018-06-19T19:15:45.150Z,101733.41
2018-06-19T19:18:19.954Z,101734.84
2018-06-19T19:20:51.673Z,101737.19
2018-06-19T19:23:21.409Z,101742.18
2018-06-19T19:25:52.997Z,101738.78
2018-06-19T19:28:29.654Z,101743.95
2018-06-19T19:30:59.486Z,101750.91
2018-06-19T19:33:28.511Z,101756.27
2018-06-19T19:35:57.112Z,101753.55
2018-06-19T19:38:31.465Z,101753.09
2018-06-19T19:41:00.491Z,101757.62
2018-06-19T19:43:29.588Z,101769.45
2018-06-19T19:45:58.834Z,101763.41
2018-06-19T19:48:32.915Z,101771.29
2018-06-19T19:51:01.962Z,101776.13
2018-06-19T19:53:31.206Z,101774.45
2018-06-19T19:56:04.889Z,101778.67
2018-06-19T19:58:38.696Z,101778.77
2018-06-19T20:01:07.473Z,101783.36
2018-06-19T20:03:36.186Z,101787.23
2018-06-19T20:06:05.342Z,101787.23
2018-06-19T20:08:34.106Z,101785.21
2018-06-19T20:11:03.562Z,101796.00
2018-06-19T20:13:32.546Z,101795.17
2018-06-19T20:16:01.271Z,101792.02
2018-06-19T20:18:30.289Z,101792.91
2018-06-19T20:20:59.017Z,101796.98
2018-06-19T20:23:27.633Z,101799.91
2018-06-19T20:25:56.496Z,101805.73
2018-06-19T20:28:26.145Z,101797.89
2018-06-19T20:30:54.829Z,101806.41
2018-06-19T20:33:23.551Z,101803.69
2018-06-19T20:35:52.289Z,101807.09
2018-06-19T20:38:21.059Z,101811.03
2018-06-19T20:40:49.709Z,101809.12
2018-06-19T20:43:18.396Z,101811.62
2018-06-19T20:45:47.359Z,101808.45
2018-06-19T20:48:16.322Z,101807.71
2018-06-19T20:50:45.035Z,101800.44
2018-06-19T20:53:13.687Z,101805.83
2018-06-19T20:55:42.579Z,101805.58
2018-06-19T20:58:11.235Z,101810.70
2018-06-19T21:00:40.266Z,101808.23
2018-06-19T21:03:09.817Z,101809.81
2018-06-19T21:05:38.824Z,101815.25
2018-06-19T21:08:08.808Z,101818.58
2018-06-19T21:10:37.841Z,101812.23
2018-06-19T21:13:06.553Z,101808.59
2018-06-19T21:15:35.498Z,101818.41
2018-06-19T21:18:04.153Z,101819.48
2018-06-19T21:20:32.980Z,101822.64
2018-06-19T21:23:01.636Z,101826.10
2018-06-19T21:25:30.581Z,101825.22
2018-06-19T21:27:59.538Z,101829.42
2018-06-19T21:30:28.125Z,101831.08
2018-06-19T21:32:57.751Z,101831.08
2018-06-19T21:35:26.369Z,101827.01
2018-06-19T21:37:55.074Z,101831.91
2018-06-19T21:40:24.324Z,101835.69
2018-06-19T21:42:52.939Z,101838.03
2018-06-19T21:45:21.606Z,101841.19
2018-06-19T21:47:50.232Z,101843.81
2018-06-19T21:50:18.834Z,101845.42
2018-06-19T21:52:47.837Z,101845.02
2018-06-19T21:55:16.421Z,101840.58
2018-06-19T21:57:45.041Z,101844.88
2018-06-19T22:00:14.036Z,101841.17
2018-06-19T22:02:43.416Z,101838.15
2018-06-19T22:05:12.010Z,101839.50
2018-06-19T22:07:40.602Z,101837.63
2018-06-19T22:10:09.543Z,101835.95
2018-06-19T22:12:38.397Z,101840.25
2018-06-19T22:15:07.012Z,101838.27
2018-06-19T22:17:35.898Z,101839.33
2018-06-19T22:20:04.560Z,101843.39
2018-06-19T22:22:34.268Z,101842.28
2018-06-19T22:25:03.125Z,101847.00
2018-06-19T22:27:31.745Z,101844.88
2018-06-19T22:30:00.595Z,101844.50
2018-06-19T22:32:29.173Z,101837.99
2018-06-19T22:34:58.000Z,101842.69
2018-06-19T22:37:27.748Z,101839.97
2018-06-19T22:39:56.695Z,101844.88
2018-06-19T22:42:25.306Z,101850.00
2018-06-19T22:44:53.936Z,101853.84
2018-06-19T22:47:24.334Z,101839.47
2018-06-19T22:49:53.553Z,101843.97
2018-06-19T22:52:23.704Z,101846.33
2018-06-19T22:54:54.567Z,101841.99
2018-06-19T22:57:23.464Z,101844.09
2018-06-19T22:59:52.879Z,101841.99
2018-06-19T23:02:22.401Z,101841.78
2018-06-19T23:04:52.374Z,101841.63
2018-06-19T23:07:22.786Z,101846.53
2018-06-19T23:09:52.811Z,101849.25
2018-06-19T23:12:21.720Z,101849.88
2018-06-19T23:14:50.305Z,101852.38
2018-06-19T23:17:19.504Z,101851.84
2018-06-19T23:19:48.092Z,101859.47
2018-06-19T23:22:16.691Z,101866.31
2018-06-19T23:24:45.601Z,101867.55
2018-06-19T23:27:14.861Z,101866.78
2018-06-19T23:29:43.480Z,101860.77
2018-06-19T23:32:12.464Z,101859.94
2018-06-19T23:34:41.086Z,101864.95
2018-06-19T23:37:10.047Z,101863.29
2018-06-19T23:39:38.680Z,101862.08
2018-06-19T23:42:07.362Z,101869.91
2018-06-19T23:44:35.966Z,101866.41
2018-06-19T23:47:04.605Z,101867.67
2018-06-19T23:49:33.315Z,101868.95
2018-06-19T23:52:01.913Z,101873.03
2018-06-19T23:54:30.801Z,101874.38
2018-06-19T23:56:59.396Z,101875.22
2018-06-19T23:59:28.644Z,101879.92
